createdAt,value
2019-03-24T00:02:23.160Z,56.00
2019-03-24T00:04:51.395Z,53.27
2019-03-24T00:07:19.605Z,50.27
2019-03-24T00:09:47.801Z,53.10
2019-03-24T00:12:16.075Z,52.83
2019-03-24T00:14:44.334Z,47.87
2019-03-24T00:17:12.573Z,46.80
2019-03-24T00:19:40.756Z,49.03
2019-03-24T00:22:08.947Z,49.27
2019-03-24T00:24:37.165Z,48.60
2019-03-24T00:27:05.390Z,49.37
2019-03-24T00:29:33.571Z,55.40
2019-03-24T00:32:01.796Z,52.10
2019-03-24T00:34:30.012Z,50.70
2019-03-24T00:36:58.233Z,59.10
2019-03-24T00:39:26.418Z,54.43
2019-03-24T00:41:54.672Z,59.60
2019-03-24T00:44:22.862Z,55.83
2019-03-24T00:46:51.096Z,57.33
2019-03-24T00:49:19.356Z,62.33
2019-03-24T00:51:47.574Z,55.00
2019-03-24T00:54:15.813Z,61.60
2019-03-24T00:56:44.025Z,49.60
2019-03-24T00:59:12.249Z,51.47
2019-03-24T01:01:40.440Z,52.57
2019-03-24T01:04:08.623Z,45.13
2019-03-24T01:06:36.823Z,51.00
2019-03-24T01:09:06.197Z,46.57
2019-03-24T01:11:34.432Z,43.33
2019-03-24T01:14:02.616Z,41.30
2019-03-24T01:16:30.837Z,42.13
2019-03-24T01:18:59.061Z,33.40
2019-03-24T01:21:27.277Z,30.65
2019-03-24T01:23:55.454Z,30.00
2019-03-24T01:26:23.644Z,30.73
2019-03-24T01:28:51.874Z,21.23
2019-03-24T01:31:20.100Z,24.33
2019-03-24T01:33:48.305Z,27.13
2019-03-24T01:43:38.576Z,26.95
2019-03-24T01:53:29.897Z,17.20
2019-03-24T01:55:58.117Z,20.37
2019-03-24T01:58:26.333Z,14.63
2019-03-24T02:00:54.510Z,19.35
2019-03-24T02:03:22.698Z,15.10
2019-03-24T02:05:50.913Z,21.00
2019-03-24T02:08:19.084Z,15.33
2019-03-24T03:19:46.898Z,18.90
2019-03-24T03:46:52.825Z,23.60
2019-03-24T03:49:18.672Z,21.50
2019-03-24T03:51:46.896Z,17.87
2019-03-24T03:54:15.106Z,21.63
2019-03-24T03:56:43.277Z,23.60
2019-03-24T03:59:11.478Z,20.27
2019-03-24T04:01:39.850Z,21.40
2019-03-24T04:04:08.074Z,18.83
2019-03-24T04:06:36.255Z,22.95
2019-03-24T04:11:33.106Z,24.53
2019-03-24T04:14:01.298Z,20.80
2019-03-24T04:16:29.484Z,22.40
2019-03-24T04:23:52.411Z,23.00
2019-03-24T04:26:20.694Z,20.93
2019-03-24T04:28:48.871Z,21.20
2019-03-24T04:31:17.099Z,17.60
2019-03-24T04:33:45.338Z,15.23
2019-03-24T04:36:13.512Z,22.20
2019-03-24T04:38:41.704Z,18.83
2019-03-24T04:41:09.910Z,16.60
2019-03-24T04:43:38.095Z,20.63
2019-03-24T04:46:06.276Z,19.80
2019-03-24T04:48:34.471Z,20.90
2019-03-24T04:51:02.654Z,20.20
2019-03-24T04:53:30.875Z,16.97
2019-03-24T04:55:59.059Z,23.50
2019-03-24T04:58:27.274Z,27.55
2019-03-24T05:00:55.489Z,25.40
2019-03-24T05:03:23.696Z,23.47
2019-03-24T05:05:52.150Z,22.53
2019-03-24T05:08:20.526Z,18.40
2019-03-24T05:10:48.752Z,21.17
2019-03-24T05:13:16.933Z,27.00
2019-03-24T05:15:45.113Z,29.85
2019-03-24T05:18:13.333Z,19.30
2019-03-24T05:20:41.514Z,16.43
2019-03-24T05:23:09.726Z,23.47
2019-03-24T05:25:37.929Z,21.30
2019-03-24T05:28:06.141Z,19.80
2019-03-24T05:30:35.764Z,21.50
2019-03-24T05:33:04.011Z,32.40
2019-03-24T05:35:32.196Z,17.73
2019-03-24T05:38:00.397Z,25.77
2019-03-24T05:40:28.591Z,20.20
2019-03-24T05:42:56.767Z,21.97
2019-03-24T05:45:24.985Z,17.77
2019-03-24T05:47:53.168Z,19.27
2019-03-24T05:50:21.383Z,18.73
2019-03-24T05:52:49.586Z,19.50
2019-03-24T05:55:17.801Z,16.13
2019-03-24T05:57:46.005Z,20.13
2019-03-24T06:00:14.468Z,17.53
2019-03-24T06:02:42.647Z,23.40
2019-03-24T06:05:10.924Z,22.77
2019-03-24T06:07:39.145Z,17.00
2019-03-24T06:10:07.490Z,15.73
2019-03-24T06:12:35.685Z,18.50
2019-03-24T06:15:05.444Z,19.47
2019-03-24T06:17:33.656Z,14.63
2019-03-24T06:20:01.924Z,17.40
2019-03-24T06:22:30.153Z,23.97
2019-03-24T06:24:58.425Z,17.60
2019-03-24T06:27:26.641Z,19.33
2019-03-24T06:29:54.846Z,21.67
2019-03-24T06:32:23.060Z,20.20
2019-03-24T06:34:51.281Z,16.67
2019-03-24T06:37:19.485Z,20.60
2019-03-24T06:39:49.187Z,16.30
2019-03-24T06:42:17.364Z,19.63
2019-03-24T06:44:45.544Z,13.73
2019-03-24T06:47:13.759Z,20.17
2019-03-24T06:49:41.940Z,19.30
2019-03-24T06:52:10.160Z,18.50
2019-03-24T06:54:38.344Z,12.43
2019-03-24T06:57:06.524Z,14.03
2019-03-24T06:59:34.752Z,16.63
2019-03-24T07:02:02.932Z,18.83
2019-03-24T07:04:31.116Z,18.60
2019-03-24T07:06:59.315Z,18.20
2019-03-24T07:09:28.415Z,14.87
2019-03-24T07:11:56.696Z,13.67
2019-03-24T07:14:24.902Z,14.37
2019-03-24T07:16:53.081Z,8.83
2019-03-24T07:19:21.306Z,15.90
2019-03-24T07:21:49.540Z,20.23
2019-03-24T07:24:17.736Z,11.10
2019-03-24T07:26:45.952Z,19.53
2019-03-24T07:29:14.131Z,10.90
2019-03-24T07:31:42.347Z,19.00
2019-03-24T07:34:10.565Z,18.20
2019-03-24T07:36:38.751Z,14.50
2019-03-24T07:39:07.453Z,20.53
2019-03-24T07:41:36.327Z,14.17
2019-03-24T07:44:04.599Z,13.80
2019-03-24T07:46:32.769Z,9.30
2019-03-24T07:49:00.985Z,15.97
2019-03-24T07:51:29.200Z,21.03
2019-03-24T07:53:57.376Z,14.00
2019-03-24T07:56:25.557Z,24.27
2019-03-24T07:58:53.778Z,17.70
2019-03-24T08:01:21.964Z,15.00
2019-03-24T08:03:50.173Z,14.30
2019-03-24T08:06:18.348Z,12.93
2019-03-24T08:08:46.538Z,15.13
2019-03-24T08:11:14.797Z,13.17
2019-03-24T08:13:53.268Z,13.10
2019-03-24T08:16:13.801Z,18.10
2019-03-24T08:18:42.029Z,12.07
2019-03-24T08:21:10.216Z,16.83
2019-03-24T08:23:38.434Z,25.23
2019-03-24T08:26:06.642Z,18.53
2019-03-24T08:28:34.915Z,19.43
2019-03-24T08:31:03.096Z,13.67
2019-03-24T08:33:31.288Z,11.30
2019-03-24T08:35:59.501Z,14.40
2019-03-24T08:38:27.708Z,13.23
2019-03-24T08:40:55.960Z,9.33
2019-03-24T08:43:24.131Z,19.37
2019-03-24T08:45:52.316Z,13.03
2019-03-24T08:48:20.544Z,20.10
2019-03-24T08:50:48.796Z,12.73
2019-03-24T08:53:16.972Z,14.53
2019-03-24T08:55:45.245Z,20.37
2019-03-24T08:58:13.423Z,15.70
2019-03-24T09:03:08.985Z,14.80
2019-03-24T09:05:37.213Z,15.50
2019-03-24T09:08:05.460Z,14.07
2019-03-24T09:10:33.672Z,13.27
2019-03-24T09:13:01.925Z,14.70
2019-03-24T09:15:30.129Z,10.60
2019-03-24T09:17:58.307Z,15.60
2019-03-24T09:20:26.500Z,13.73
2019-03-24T09:22:54.712Z,15.67
2019-03-24T09:25:22.945Z,12.10
2019-03-24T09:27:51.219Z,14.70
2019-03-24T09:30:28.890Z,9.67
2019-03-24T09:32:57.772Z,15.13
2019-03-24T09:35:26.002Z,16.20
2019-03-24T09:37:54.183Z,18.30
2019-03-24T09:40:29.297Z,11.03
2019-03-24T09:43:00.696Z,19.60
2019-03-24T09:45:29.698Z,14.87
2019-03-24T09:47:59.144Z,18.47
2019-03-24T09:50:27.376Z,9.57
2019-03-24T09:52:55.727Z,8.00
2019-03-24T09:55:24.885Z,12.70
2019-03-24T09:57:53.083Z,9.50
2019-03-24T10:00:21.284Z,15.57
2019-03-24T10:02:49.479Z,12.07
2019-03-24T10:05:17.730Z,15.90
2019-03-24T10:07:46.428Z,14.33
2019-03-24T10:10:14.692Z,12.13
2019-03-24T10:12:42.888Z,14.00
2019-03-24T10:15:11.448Z,16.90
2019-03-24T10:17:39.684Z,15.30
2019-03-24T10:20:07.928Z,10.10
2019-03-24T10:22:36.156Z,13.27
2019-03-24T10:25:05.976Z,8.17
2019-03-24T10:27:34.164Z,8.90
2019-03-24T10:30:02.557Z,11.70
2019-03-24T10:32:30.772Z,10.97
2019-03-24T10:34:59.013Z,10.20
2019-03-24T10:37:27.250Z,9.30
2019-03-24T10:39:55.428Z,8.65
2019-03-24T10:42:23.661Z,14.63
2019-03-24T10:44:51.841Z,8.77
2019-03-24T10:47:20.045Z,7.65
2019-03-24T10:49:48.304Z,12.77
2019-03-24T10:52:16.492Z,11.87
2019-03-24T10:54:44.701Z,8.90
2019-03-24T10:57:12.878Z,9.23
2019-03-24T10:59:41.091Z,11.00
2019-03-24T11:02:09.276Z,5.00
2019-03-24T11:04:37.451Z,15.00
2019-03-24T11:07:05.680Z,10.90
2019-03-24T11:09:33.890Z,11.97
2019-03-24T11:12:02.131Z,12.20
2019-03-24T11:14:30.345Z,11.60
2019-03-24T11:16:58.641Z,9.83
2019-03-24T11:19:35.354Z,9.17
2019-03-24T11:21:56.829Z,11.10
2019-03-24T11:24:25.056Z,7.77
2019-03-24T11:26:53.270Z,14.53
2019-03-24T11:29:21.546Z,9.43
2019-03-24T11:31:49.761Z,10.00
2019-03-24T11:34:17.952Z,11.60
2019-03-24T11:36:46.160Z,8.87
2019-03-24T11:39:14.343Z,15.70
2019-03-24T11:41:42.619Z,11.13
2019-03-24T11:44:10.807Z,11.93
2019-03-24T11:46:38.992Z,11.80
2019-03-24T11:49:08.734Z,9.60
2019-03-24T11:51:36.940Z,9.10
2019-03-24T11:54:05.136Z,9.97
2019-03-24T11:56:33.324Z,8.70
2019-03-24T11:59:01.497Z,8.33
2019-03-24T12:01:37.919Z,10.70
2019-03-24T12:04:00.488Z,12.55
2019-03-24T12:06:28.680Z,8.57
2019-03-24T12:08:56.932Z,11.45
2019-03-24T12:11:25.099Z,13.10
2019-03-24T12:13:53.308Z,7.97
2019-03-24T12:16:21.493Z,6.80
2019-03-24T12:18:49.708Z,8.40
2019-03-24T12:21:17.895Z,10.83
2019-03-24T12:23:46.121Z,8.30
2019-03-24T12:26:15.932Z,11.80
2019-03-24T12:28:44.140Z,11.30
2019-03-24T12:31:12.337Z,8.40
2019-03-24T12:33:40.516Z,8.50
2019-03-24T12:36:08.692Z,13.60
2019-03-24T12:38:36.909Z,13.05
2019-03-24T12:41:05.293Z,5.73
2019-03-24T12:43:33.477Z,9.65
2019-03-24T12:48:29.124Z,12.90
2019-03-24T12:50:57.892Z,9.43
2019-03-24T12:53:26.068Z,7.70
2019-03-24T12:55:54.291Z,7.93
2019-03-24T12:58:22.546Z,9.20
2019-03-24T13:00:50.746Z,9.03
2019-03-24T13:05:46.272Z,6.35
2019-03-24T13:08:15.150Z,4.70
2019-03-24T13:10:43.969Z,7.13
2019-03-24T13:13:12.196Z,12.60
2019-03-24T13:15:40.639Z,7.47
2019-03-24T13:18:09.000Z,9.30
2019-03-24T13:20:38.743Z,9.57
2019-03-24T13:23:07.179Z,8.43
2019-03-24T13:25:36.379Z,8.13
2019-03-24T13:28:04.927Z,5.73
2019-03-24T13:30:33.137Z,9.10
2019-03-24T13:33:01.419Z,9.10
2019-03-24T13:35:29.627Z,9.10
2019-03-24T13:37:58.081Z,10.10
2019-03-24T13:40:26.324Z,8.50
2019-03-24T13:42:54.506Z,9.80
2019-03-24T13:50:17.440Z,7.90
2019-03-24T13:52:45.657Z,9.70
2019-03-24T13:55:13.908Z,9.00
2019-03-24T13:57:42.087Z,8.70
2019-03-24T14:02:38.632Z,9.97
2019-03-24T14:05:06.880Z,12.60
2019-03-24T14:07:35.099Z,5.97
2019-03-24T14:10:04.380Z,7.40
2019-03-24T15:06:35.457Z,9.60
2019-03-24T15:09:05.332Z,11.50
2019-03-24T16:15:27.606Z,11.97
2019-03-24T16:17:55.810Z,9.27
2019-03-24T16:20:23.996Z,10.60
2019-03-24T16:22:52.185Z,9.25
2019-03-24T16:25:20.400Z,9.43
2019-03-24T16:27:48.632Z,9.33
2019-03-24T16:30:16.836Z,10.55
2019-03-24T16:37:39.756Z,13.20
2019-03-24T16:40:08.137Z,12.10
2019-03-24T16:42:36.393Z,12.03
2019-03-24T16:49:59.315Z,7.70
2019-03-24T16:52:27.545Z,7.50
2019-03-24T16:54:55.736Z,10.50
2019-03-24T17:24:25.724Z,9.70
2019-03-24T17:26:53.915Z,11.10
2019-03-24T17:29:22.097Z,14.07
2019-03-24T17:31:50.290Z,11.33
2019-03-24T17:34:18.497Z,10.40
2019-03-24T17:36:46.687Z,8.30
2019-03-24T17:39:14.853Z,6.97
2019-03-24T17:41:43.098Z,11.73
2019-03-24T17:44:12.790Z,8.70
2019-03-24T17:46:41.186Z,8.90
2019-03-24T17:49:09.437Z,9.50
2019-03-24T17:51:37.670Z,9.33
2019-03-24T17:54:05.895Z,8.20
2019-03-24T17:56:34.132Z,10.27
2019-03-24T17:59:02.352Z,20.27
2019-03-24T18:01:30.561Z,11.00
2019-03-24T18:03:58.743Z,9.27
2019-03-24T18:06:26.923Z,13.07
2019-03-24T18:08:55.178Z,12.83
2019-03-24T18:11:23.355Z,16.23
2019-03-24T18:13:51.582Z,11.20
2019-03-24T18:16:19.761Z,7.73
2019-03-24T18:18:47.954Z,14.77
2019-03-24T18:21:16.663Z,11.13
2019-03-24T18:23:45.481Z,10.27
2019-03-24T18:26:13.690Z,11.03
2019-03-24T18:28:41.967Z,10.30
2019-03-24T18:31:10.182Z,9.13
2019-03-24T18:33:38.356Z,9.90
2019-03-24T18:36:06.585Z,12.70
2019-03-24T18:38:34.759Z,9.50
2019-03-24T18:41:02.996Z,16.30
2019-03-24T18:43:31.233Z,8.40
2019-03-24T18:45:59.449Z,8.40
2019-03-24T18:48:27.661Z,10.93
2019-03-24T18:50:55.832Z,13.30
2019-03-24T18:53:24.049Z,10.63
2019-03-24T18:55:52.269Z,10.70
2019-03-24T18:58:20.452Z,12.13
2019-03-24T19:00:48.630Z,15.90
2019-03-24T19:03:16.820Z,11.90
2019-03-24T19:05:45.035Z,13.07
2019-03-24T19:08:13.221Z,16.03
2019-03-24T19:10:41.441Z,11.87
2019-03-24T19:13:09.659Z,12.80
2019-03-24T19:15:37.889Z,16.33
2019-03-24T19:18:06.095Z,19.43
2019-03-24T19:20:34.309Z,25.83
2019-03-24T19:23:02.518Z,20.80
2019-03-24T19:25:30.733Z,16.03
2019-03-24T19:27:58.913Z,18.00
2019-03-24T19:30:34.161Z,16.97
2019-03-24T19:33:02.419Z,18.90
2019-03-24T19:35:30.674Z,32.23
2019-03-24T19:37:59.439Z,44.47
2019-03-24T19:40:29.196Z,47.00
2019-03-24T19:42:57.624Z,29.90
2019-03-24T19:45:25.904Z,52.43
2019-03-24T19:47:54.740Z,17.37
2019-03-24T19:50:23.028Z,23.97
2019-03-24T19:52:51.207Z,16.67
2019-03-24T19:55:19.464Z,26.00
2019-03-24T19:57:47.653Z,30.40
2019-03-24T20:00:15.903Z,25.30
2019-03-24T20:02:44.105Z,24.63
2019-03-24T20:05:12.352Z,23.20
2019-03-24T20:07:47.863Z,27.80
2019-03-24T20:10:10.481Z,25.60
2019-03-24T20:12:38.781Z,24.90
2019-03-24T20:15:07.196Z,21.30
2019-03-24T20:17:35.375Z,15.50
2019-03-24T20:20:05.187Z,16.93
2019-03-24T20:22:33.398Z,13.83
2019-03-24T20:25:01.580Z,17.67
2019-03-24T20:27:29.772Z,21.43
2019-03-24T20:29:58.062Z,22.60
2019-03-24T20:32:26.286Z,21.83
2019-03-24T20:34:54.475Z,24.10
2019-03-24T20:37:22.728Z,18.67
2019-03-24T20:39:50.934Z,15.93
2019-03-24T20:42:19.126Z,13.60
2019-03-24T20:44:47.384Z,16.37
2019-03-24T20:47:15.618Z,17.63
2019-03-24T20:49:43.791Z,17.40
2019-03-24T20:52:12.997Z,20.83
2019-03-24T20:54:41.201Z,18.93
2019-03-24T20:57:09.425Z,17.20
2019-03-24T20:59:37.700Z,14.13
2019-03-24T21:02:05.959Z,13.93
2019-03-24T21:04:34.152Z,16.50
2019-03-24T21:07:02.340Z,12.47
2019-03-24T21:09:30.523Z,12.67
2019-03-24T21:11:58.703Z,13.80
2019-03-24T21:14:26.914Z,15.10
2019-03-24T21:16:55.236Z,13.83
2019-03-24T21:19:23.415Z,11.83
2019-03-24T21:21:51.595Z,18.00
2019-03-24T21:24:19.816Z,18.67
2019-03-24T21:26:48.045Z,18.07
2019-03-24T21:29:16.256Z,20.37
2019-03-24T21:31:44.432Z,15.47
2019-03-24T21:34:12.641Z,21.33
2019-03-24T21:36:40.888Z,23.70
2019-03-24T21:41:36.544Z,12.03
2019-03-24T21:44:04.752Z,14.50
2019-03-24T21:53:55.930Z,14.10
2019-03-24T21:56:24.137Z,12.57
2019-03-24T21:58:52.327Z,12.13
2019-03-24T22:01:20.534Z,11.75
2019-03-24T22:03:48.737Z,13.90
2019-03-24T22:06:16.949Z,17.70
2019-03-24T22:08:45.136Z,17.00
2019-03-24T22:11:13.343Z,25.70
2019-03-24T22:13:41.573Z,14.30
2019-03-24T22:16:09.746Z,21.95
2019-03-24T22:18:37.935Z,19.07
2019-03-24T22:21:06.119Z,18.30
2019-03-24T22:23:34.345Z,12.23
2019-03-24T22:26:02.633Z,16.85
2019-03-24T22:28:30.819Z,12.20
2019-03-24T22:30:59.044Z,13.20
2019-03-24T22:33:28.375Z,23.20
2019-03-24T22:35:56.568Z,16.43
2019-03-24T22:38:24.762Z,15.37
2019-03-24T22:40:52.947Z,20.70
2019-03-24T22:43:21.154Z,18.03
2019-03-24T22:45:49.367Z,20.13
2019-03-24T22:48:17.615Z,14.33
2019-03-24T22:50:45.871Z,17.27
2019-03-24T22:53:14.052Z,10.80
2019-03-24T22:55:42.260Z,14.17
2019-03-24T22:58:10.443Z,17.70
2019-03-24T23:00:46.180Z,10.37
2019-03-24T23:03:14.428Z,12.93
2019-03-24T23:05:42.638Z,18.40
2019-03-24T23:08:10.856Z,14.90
2019-03-24T23:10:39.103Z,18.90
2019-03-24T23:13:07.345Z,14.70
2019-03-24T23:15:35.564Z,19.60
2019-03-24T23:18:03.833Z,14.60
2019-03-24T23:20:32.017Z,16.75
2019-03-24T23:23:00.231Z,30.87
2019-03-24T23:25:28.444Z,17.23
2019-03-24T23:27:56.632Z,19.77
2019-03-24T23:30:24.837Z,12.40
2019-03-24T23:32:53.074Z,14.03
2019-03-24T23:35:21.287Z,16.30
2019-03-24T23:37:49.529Z,15.20
2019-03-24T23:40:17.723Z,17.43
2019-03-24T23:42:45.899Z,18.87
2019-03-24T23:45:14.190Z,13.00
2019-03-24T23:47:42.390Z,15.13
2019-03-24T23:50:10.895Z,22.60
2019-03-24T23:52:39.074Z,19.50
2019-03-24T23:55:07.388Z,16.45
2019-03-24T23:57:35.647Z,18.50
